sensor_id;sensor_type;location;lat;lon;timestamp;temperature;humidity
78876;DHT22;68253;52.506;5.486;2023-08-30T00:00:57;14.90;69.70
78876;DHT22;68253;52.506;5.486;2023-08-30T00:03:24;14.90;69.70
78876;DHT22;68253;52.506;5.486;2023-08-30T00:05:50;14.80;69.80
78876;DHT22;68253;52.506;5.486;2023-08-30T00:08:16;14.80;69.80
78876;DHT22;68253;52.506;5.486;2023-08-30T00:10:45;14.80;69.80
78876;DHT22;68253;52.506;5.486;2023-08-30T00:13:12;14.80;69.90
78876;DHT22;68253;52.506;5.486;2023-08-30T00:15:38;14.70;70.00
78876;DHT22;68253;52.506;5.486;2023-08-30T00:18:05;14.70;70.00
78876;DHT22;68253;52.506;5.486;2023-08-30T00:20:31;14.60;70.00
78876;DHT22;68253;52.506;5.486;2023-08-30T00:22:58;14.60;70.00
78876;DHT22;68253;52.506;5.486;2023-08-30T00:25:24;14.60;70.10
78876;DHT22;68253;52.506;5.486;2023-08-30T00:27:50;14.50;70.10
78876;DHT22;68253;52.506;5.486;2023-08-30T00:30:16;14.50;70.20
78876;DHT22;68253;52.506;5.486;2023-08-30T00:32:42;14.40;70.30
78876;DHT22;68253;52.506;5.486;2023-08-30T00:35:08;14.40;70.30
78876;DHT22;68253;52.506;5.486;2023-08-30T00:37:34;14.30;70.40
78876;DHT22;68253;52.506;5.486;2023-08-30T00:40:01;14.30;70.40
78876;DHT22;68253;52.506;5.486;2023-08-30T00:42:27;14.30;70.50
78876;DHT22;68253;52.506;5.486;2023-08-30T00:44:53;14.30;70.50
78876;DHT22;68253;52.506;5.486;2023-08-30T00:47:20;14.20;70.50
78876;DHT22;68253;52.506;5.486;2023-08-30T00:49:47;14.20;70.50
78876;DHT22;68253;52.506;5.486;2023-08-30T00:52:13;14.10;70.50
78876;DHT22;68253;52.506;5.486;2023-08-30T00:54:40;14.10;70.70
78876;DHT22;68253;52.506;5.486;2023-08-30T00:57:07;14.10;70.70
78876;DHT22;68253;52.506;5.486;2023-08-30T00:59:34;14.00;70.80
78876;DHT22;68253;52.506;5.486;2023-08-30T01:02:01;14.00;70.80
78876;DHT22;68253;52.506;5.486;2023-08-30T01:04:28;14.00;70.90
78876;DHT22;68253;52.506;5.486;2023-08-30T01:06:54;13.90;70.90
78876;DHT22;68253;52.506;5.486;2023-08-30T01:09:21;13.90;71.00
78876;DHT22;68253;52.506;5.486;2023-08-30T01:12:00;13.90;71.00
78876;DHT22;68253;52.506;5.486;2023-08-30T01:17:04;13.90;71.10
78876;DHT22;68253;52.506;5.486;2023-08-30T01:19:42;14.00;71.20
78876;DHT22;68253;52.506;5.486;2023-08-30T01:22:17;14.00;71.10
78876;DHT22;68253;52.506;5.486;2023-08-30T01:27:15;14.10;71.00
78876;DHT22;68253;52.506;5.486;2023-08-30T01:29:44;14.10;70.90
78876;DHT22;68253;52.506;5.486;2023-08-30T01:32:13;14.20;70.80
78876;DHT22;68253;52.506;5.486;2023-08-30T01:34:41;14.20;70.80
78876;DHT22;68253;52.506;5.486;2023-08-30T01:37:09;14.20;70.80
78876;DHT22;68253;52.506;5.486;2023-08-30T01:39:36;14.20;70.70
78876;DHT22;68253;52.506;5.486;2023-08-30T01:42:04;14.30;70.60
78876;DHT22;68253;52.506;5.486;2023-08-30T01:44:31;14.30;70.40
78876;DHT22;68253;52.506;5.486;2023-08-30T01:47:00;14.30;70.30
78876;DHT22;68253;52.506;5.486;2023-08-30T01:49:28;14.30;70.30
78876;DHT22;68253;52.506;5.486;2023-08-30T01:51:55;14.40;70.30
78876;DHT22;68253;52.506;5.486;2023-08-30T01:54:21;14.40;70.30
78876;DHT22;68253;52.506;5.486;2023-08-30T01:56:48;14.40;70.20
78876;DHT22;68253;52.506;5.486;2023-08-30T01:59:14;14.40;70.20
78876;DHT22;68253;52.506;5.486;2023-08-30T02:01:40;14.50;70.10
78876;DHT22;68253;52.506;5.486;2023-08-30T02:04:06;14.50;70.10
78876;DHT22;68253;52.506;5.486;2023-08-30T02:09:53;14.50;70.10
78876;DHT22;68253;52.506;5.486;2023-08-30T02:12:22;14.50;70.10
78876;DHT22;68253;52.506;5.486;2023-08-30T02:14:51;14.50;70.00
78876;DHT22;68253;52.506;5.486;2023-08-30T02:17:19;14.50;69.90
78876;DHT22;68253;52.506;5.486;2023-08-30T02:19:45;14.60;69.90
78876;DHT22;68253;52.506;5.486;2023-08-30T02:22:16;14.60;70.00
78876;DHT22;68253;52.506;5.486;2023-08-30T02:24:42;14.60;70.00
78876;DHT22;68253;52.506;5.486;2023-08-30T02:27:08;14.60;70.00
78876;DHT22;68253;52.506;5.486;2023-08-30T02:29:34;14.60;70.00
78876;DHT22;68253;52.506;5.486;2023-08-30T02:32:00;14.60;69.90
78876;DHT22;68253;52.506;5.486;2023-08-30T02:34:27;14.60;69.90
78876;DHT22;68253;52.506;5.486;2023-08-30T02:36:53;14.60;69.80
78876;DHT22;68253;52.506;5.486;2023-08-30T02:39:19;14.70;69.80
78876;DHT22;68253;52.506;5.486;2023-08-30T02:41:45;14.70;69.80
78876;DHT22;68253;52.506;5.486;2023-08-30T02:44:11;14.70;69.80
78876;DHT22;68253;52.506;5.486;2023-08-30T02:46:38;14.70;69.80
78876;DHT22;68253;52.506;5.486;2023-08-30T02:49:05;14.70;69.70
78876;DHT22;68253;52.506;5.486;2023-08-30T02:51:31;14.70;69.60
78876;DHT22;68253;52.506;5.486;2023-08-30T02:53:58;14.70;69.50
78876;DHT22;68253;52.506;5.486;2023-08-30T02:56:24;14.70;69.50
78876;DHT22;68253;52.506;5.486;2023-08-30T02:58:51;14.70;69.50
78876;DHT22;68253;52.506;5.486;2023-08-30T03:01:17;14.70;69.50
78876;DHT22;68253;52.506;5.486;2023-08-30T03:03:45;14.70;69.40
78876;DHT22;68253;52.506;5.486;2023-08-30T03:06:12;14.70;69.40
78876;DHT22;68253;52.506;5.486;2023-08-30T03:08:40;14.80;69.30
78876;DHT22;68253;52.506;5.486;2023-08-30T03:11:10;14.80;69.30
78876;DHT22;68253;52.506;5.486;2023-08-30T03:13:41;14.70;69.30
78876;DHT22;68253;52.506;5.486;2023-08-30T03:16:14;14.70;69.40
78876;DHT22;68253;52.506;5.486;2023-08-30T03:18:42;14.80;69.40
78876;DHT22;68253;52.506;5.486;2023-08-30T03:21:08;14.70;69.30
78876;DHT22;68253;52.506;5.486;2023-08-30T03:23:38;14.70;69.30
78876;DHT22;68253;52.506;5.486;2023-08-30T03:26:22;14.70;69.40
78876;DHT22;68253;52.506;5.486;2023-08-30T03:28:49;14.70;69.50
78876;DHT22;68253;52.506;5.486;2023-08-30T03:31:18;14.70;69.50
78876;DHT22;68253;52.506;5.486;2023-08-30T03:33:49;14.70;69.40
78876;DHT22;68253;52.506;5.486;2023-08-30T03:36:17;14.70;69.30
78876;DHT22;68253;52.506;5.486;2023-08-30T03:38:43;14.70;69.20
78876;DHT22;68253;52.506;5.486;2023-08-30T03:41:11;14.70;69.10
78876;DHT22;68253;52.506;5.486;2023-08-30T03:43:38;14.60;69.10
78876;DHT22;68253;52.506;5.486;2023-08-30T03:46:04;14.60;69.10
78876;DHT22;68253;52.506;5.486;2023-08-30T03:48:31;14.60;69.10
78876;DHT22;68253;52.506;5.486;2023-08-30T03:50:57;14.50;69.00
78876;DHT22;68253;52.506;5.486;2023-08-30T03:53:24;14.50;69.10
78876;DHT22;68253;52.506;5.486;2023-08-30T03:55:50;14.50;69.10
78876;DHT22;68253;52.506;5.486;2023-08-30T03:58:18;14.40;69.10
78876;DHT22;68253;52.506;5.486;2023-08-30T04:00:45;14.40;69.10
78876;DHT22;68253;52.506;5.486;2023-08-30T04:03:14;14.40;69.10
78876;DHT22;68253;52.506;5.486;2023-08-30T04:05:40;14.40;69.10
78876;DHT22;68253;52.506;5.486;2023-08-30T04:08:07;14.30;69.20
78876;DHT22;68253;52.506;5.486;2023-08-30T04:10:35;14.30;69.30
78876;DHT22;68253;52.506;5.486;2023-08-30T04:13:03;14.30;69.40
78876;DHT22;68253;52.506;5.486;2023-08-30T04:15:32;14.20;69.30
78876;DHT22;68253;52.506;5.486;2023-08-30T04:17:58;14.20;69.40
78876;DHT22;68253;52.506;5.486;2023-08-30T04:20:24;14.20;69.50
78876;DHT22;68253;52.506;5.486;2023-08-30T04:22:50;14.20;69.60
78876;DHT22;68253;52.506;5.486;2023-08-30T04:25:16;14.20;69.60
78876;DHT22;68253;52.506;5.486;2023-08-30T04:27:43;14.20;69.60
78876;DHT22;68253;52.506;5.486;2023-08-30T04:30:10;14.20;69.60
78876;DHT22;68253;52.506;5.486;2023-08-30T04:32:36;14.10;69.60
78876;DHT22;68253;52.506;5.486;2023-08-30T04:35:03;14.10;69.70
78876;DHT22;68253;52.506;5.486;2023-08-30T04:37:32;14.00;69.70
78876;DHT22;68253;52.506;5.486;2023-08-30T04:39:59;14.00;69.70
78876;DHT22;68253;52.506;5.486;2023-08-30T04:42:26;14.00;69.80
78876;DHT22;68253;52.506;5.486;2023-08-30T04:44:53;14.00;69.80
78876;DHT22;68253;52.506;5.486;2023-08-30T04:47:20;14.00;69.90
78876;DHT22;68253;52.506;5.486;2023-08-30T04:49:50;13.90;69.80
78876;DHT22;68253;52.506;5.486;2023-08-30T04:52:17;13.90;69.70
78876;DHT22;68253;52.506;5.486;2023-08-30T04:54:44;13.90;69.80
78876;DHT22;68253;52.506;5.486;2023-08-30T04:57:12;13.90;69.90
78876;DHT22;68253;52.506;5.486;2023-08-30T04:59:46;13.90;69.90
78876;DHT22;68253;52.506;5.486;2023-08-30T05:02:12;13.90;70.00
78876;DHT22;68253;52.506;5.486;2023-08-30T05:04:45;13.90;69.90
78876;DHT22;68253;52.506;5.486;2023-08-30T05:07:11;13.80;69.90
78876;DHT22;68253;52.506;5.486;2023-08-30T05:09:37;13.70;70.00
78876;DHT22;68253;52.506;5.486;2023-08-30T05:12:07;13.70;69.90
78876;DHT22;68253;52.506;5.486;2023-08-30T05:14:33;13.70;69.80
78876;DHT22;68253;52.506;5.486;2023-08-30T05:17:00;13.70;69.80
78876;DHT22;68253;52.506;5.486;2023-08-30T05:19:26;13.70;69.60
78876;DHT22;68253;52.506;5.486;2023-08-30T05:21:52;13.70;69.70
78876;DHT22;68253;52.506;5.486;2023-08-30T05:24:21;13.70;69.70
78876;DHT22;68253;52.506;5.486;2023-08-30T05:26:47;13.70;69.70
78876;DHT22;68253;52.506;5.486;2023-08-30T05:29:15;13.70;69.60
78876;DHT22;68253;52.506;5.486;2023-08-30T05:31:42;13.70;69.50
78876;DHT22;68253;52.506;5.486;2023-08-30T05:34:43;13.80;69.60
78876;DHT22;68253;52.506;5.486;2023-08-30T05:37:25;13.80;69.60
78876;DHT22;68253;52.506;5.486;2023-08-30T05:40:10;13.80;69.60
78876;DHT22;68253;52.506;5.486;2023-08-30T05:42:36;13.80;69.60
78876;DHT22;68253;52.506;5.486;2023-08-30T05:45:03;13.90;69.50
78876;DHT22;68253;52.506;5.486;2023-08-30T05:47:29;13.90;69.30
78876;DHT22;68253;52.506;5.486;2023-08-30T05:49:55;13.90;69.20
78876;DHT22;68253;52.506;5.486;2023-08-30T05:52:22;13.90;69.10
78876;DHT22;68253;52.506;5.486;2023-08-30T05:54:48;13.90;69.00
78876;DHT22;68253;52.506;5.486;2023-08-30T05:57:15;14.00;68.80
78876;DHT22;68253;52.506;5.486;2023-08-30T05:59:41;14.00;68.90
78876;DHT22;68253;52.506;5.486;2023-08-30T06:02:07;14.00;68.80
78876;DHT22;68253;52.506;5.486;2023-08-30T06:04:33;14.10;68.90
78876;DHT22;68253;52.506;5.486;2023-08-30T06:06:59;14.10;68.80
78876;DHT22;68253;52.506;5.486;2023-08-30T06:09:26;14.20;68.70
78876;DHT22;68253;52.506;5.486;2023-08-30T06:11:52;14.30;68.80
78876;DHT22;68253;52.506;5.486;2023-08-30T06:14:18;14.40;68.60
78876;DHT22;68253;52.506;5.486;2023-08-30T06:16:44;14.60;68.40
78876;DHT22;68253;52.506;5.486;2023-08-30T06:19:13;14.70;68.20
78876;DHT22;68253;52.506;5.486;2023-08-30T06:21:39;14.80;67.90
78876;DHT22;68253;52.506;5.486;2023-08-30T06:24:06;14.90;67.60
78876;DHT22;68253;52.506;5.486;2023-08-30T06:26:32;14.90;67.50
78876;DHT22;68253;52.506;5.486;2023-08-30T06:28:58;15.00;67.10
78876;DHT22;68253;52.506;5.486;2023-08-30T06:31:25;14.90;67.10
78876;DHT22;68253;52.506;5.486;2023-08-30T06:33:52;14.80;66.70
78876;DHT22;68253;52.506;5.486;2023-08-30T06:36:18;14.80;66.80
78876;DHT22;68253;52.506;5.486;2023-08-30T06:38:44;14.70;67.10
78876;DHT22;68253;52.506;5.486;2023-08-30T06:41:11;14.70;67.10
78876;DHT22;68253;52.506;5.486;2023-08-30T06:43:37;14.70;67.00
78876;DHT22;68253;52.506;5.486;2023-08-30T06:46:03;14.60;67.20
78876;DHT22;68253;52.506;5.486;2023-08-30T06:48:29;14.60;67.30
78876;DHT22;68253;52.506;5.486;2023-08-30T06:50:58;14.60;67.50
78876;DHT22;68253;52.506;5.486;2023-08-30T06:53:28;14.50;67.60
78876;DHT22;68253;52.506;5.486;2023-08-30T06:56:00;14.50;67.80
78876;DHT22;68253;52.506;5.486;2023-08-30T06:58:27;14.50;68.20
78876;DHT22;68253;52.506;5.486;2023-08-30T07:00:53;14.50;68.40
78876;DHT22;68253;52.506;5.486;2023-08-30T07:03:20;14.50;68.70
78876;DHT22;68253;52.506;5.486;2023-08-30T07:05:46;14.40;68.90
78876;DHT22;68253;52.506;5.486;2023-08-30T07:08:15;14.40;69.20
78876;DHT22;68253;52.506;5.486;2023-08-30T07:10:41;14.30;69.60
78876;DHT22;68253;52.506;5.486;2023-08-30T07:13:07;14.30;70.00
78876;DHT22;68253;52.506;5.486;2023-08-30T07:15:41;14.30;70.70
78876;DHT22;68253;52.506;5.486;2023-08-30T07:18:10;14.20;71.00
78876;DHT22;68253;52.506;5.486;2023-08-30T07:20:38;14.20;71.40
78876;DHT22;68253;52.506;5.486;2023-08-30T07:23:05;14.20;71.60
78876;DHT22;68253;52.506;5.486;2023-08-30T07:25:31;14.20;71.80
78876;DHT22;68253;52.506;5.486;2023-08-30T07:28:02;14.20;71.90
78876;DHT22;68253;52.506;5.486;2023-08-30T07:30:28;14.20;72.00
78876;DHT22;68253;52.506;5.486;2023-08-30T07:32:55;14.10;72.50
78876;DHT22;68253;52.506;5.486;2023-08-30T07:35:22;14.10;72.50
78876;DHT22;68253;52.506;5.486;2023-08-30T07:37:48;14.10;72.50
78876;DHT22;68253;52.506;5.486;2023-08-30T07:40:14;14.10;72.70
78876;DHT22;68253;52.506;5.486;2023-08-30T07:42:40;14.10;73.00
78876;DHT22;68253;52.506;5.486;2023-08-30T07:45:07;14.10;73.00
78876;DHT22;68253;52.506;5.486;2023-08-30T07:47:33;14.10;73.20
78876;DHT22;68253;52.506;5.486;2023-08-30T07:49:59;14.00;73.40
78876;DHT22;68253;52.506;5.486;2023-08-30T07:52:26;14.00;73.60
78876;DHT22;68253;52.506;5.486;2023-08-30T07:54:52;14.00;74.00
78876;DHT22;68253;52.506;5.486;2023-08-30T07:57:18;14.00;74.10
78876;DHT22;68253;52.506;5.486;2023-08-30T07:59:44;13.90;74.20
78876;DHT22;68253;52.506;5.486;2023-08-30T08:02:10;14.00;74.40
78876;DHT22;68253;52.506;5.486;2023-08-30T08:04:36;14.00;74.40
78876;DHT22;68253;52.506;5.486;2023-08-30T08:07:03;14.00;74.60
78876;DHT22;68253;52.506;5.486;2023-08-30T08:09:31;14.00;74.80
78876;DHT22;68253;52.506;5.486;2023-08-30T08:11:57;14.10;74.80
78876;DHT22;68253;52.506;5.486;2023-08-30T08:14:24;14.20;74.90
78876;DHT22;68253;52.506;5.486;2023-08-30T08:16:50;14.20;74.80
78876;DHT22;68253;52.506;5.486;2023-08-30T08:19:16;14.30;75.00
78876;DHT22;68253;52.506;5.486;2023-08-30T08:21:42;14.30;75.00
78876;DHT22;68253;52.506;5.486;2023-08-30T08:24:08;14.30;75.00
78876;DHT22;68253;52.506;5.486;2023-08-30T08:26:35;14.40;75.00
78876;DHT22;68253;52.506;5.486;2023-08-30T08:29:01;14.40;75.00
78876;DHT22;68253;52.506;5.486;2023-08-30T08:31:27;14.40;75.00
78876;DHT22;68253;52.506;5.486;2023-08-30T08:34:10;14.50;75.00
78876;DHT22;68253;52.506;5.486;2023-08-30T08:36:40;14.50;74.90
78876;DHT22;68253;52.506;5.486;2023-08-30T08:39:08;14.50;74.90
78876;DHT22;68253;52.506;5.486;2023-08-30T08:44:05;14.60;74.90
78876;DHT22;68253;52.506;5.486;2023-08-30T08:46:32;14.80;75.00
78876;DHT22;68253;52.506;5.486;2023-08-30T08:49:12;14.90;74.90
78876;DHT22;68253;52.506;5.486;2023-08-30T08:51:40;15.00;74.60
78876;DHT22;68253;52.506;5.486;2023-08-30T08:54:06;15.20;74.40
78876;DHT22;68253;52.506;5.486;2023-08-30T08:56:35;15.30;73.80
78876;DHT22;68253;52.506;5.486;2023-08-30T08:59:02;15.20;73.80
78876;DHT22;68253;52.506;5.486;2023-08-30T09:01:29;15.20;73.90
78876;DHT22;68253;52.506;5.486;2023-08-30T09:03:56;15.30;74.00
78876;DHT22;68253;52.506;5.486;2023-08-30T09:06:22;15.30;73.60
78876;DHT22;68253;52.506;5.486;2023-08-30T09:08:49;15.30;73.80
78876;DHT22;68253;52.506;5.486;2023-08-30T09:11:15;15.40;73.70
78876;DHT22;68253;52.506;5.486;2023-08-30T09:13:43;15.30;73.70
78876;DHT22;68253;52.506;5.486;2023-08-30T09:16:14;15.30;73.70
78876;DHT22;68253;52.506;5.486;2023-08-30T09:18:41;15.30;73.70
78876;DHT22;68253;52.506;5.486;2023-08-30T09:21:11;15.30;73.90
78876;DHT22;68253;52.506;5.486;2023-08-30T09:23:37;15.30;74.00
78876;DHT22;68253;52.506;5.486;2023-08-30T09:26:04;15.40;74.10
78876;DHT22;68253;52.506;5.486;2023-08-30T09:28:31;15.50;74.10
78876;DHT22;68253;52.506;5.486;2023-08-30T09:31:00;15.50;74.10
78876;DHT22;68253;52.506;5.486;2023-08-30T09:33:31;15.50;74.10
78876;DHT22;68253;52.506;5.486;2023-08-30T09:36:00;15.50;74.10
78876;DHT22;68253;52.506;5.486;2023-08-30T09:38:27;15.60;73.70
78876;DHT22;68253;52.506;5.486;2023-08-30T09:41:03;15.50;73.60
78876;DHT22;68253;52.506;5.486;2023-08-30T09:43:30;15.50;73.90
78876;DHT22;68253;52.506;5.486;2023-08-30T09:45:58;15.60;73.80
78876;DHT22;68253;52.506;5.486;2023-08-30T09:48:28;15.50;74.00
78876;DHT22;68253;52.506;5.486;2023-08-30T09:50:57;15.60;74.00
78876;DHT22;68253;52.506;5.486;2023-08-30T09:53:25;15.60;73.90
78876;DHT22;68253;52.506;5.486;2023-08-30T09:55:56;15.60;73.80
78876;DHT22;68253;52.506;5.486;2023-08-30T09:58:24;15.60;73.50
78876;DHT22;68253;52.506;5.486;2023-08-30T10:00:50;15.50;73.60
78876;DHT22;68253;52.506;5.486;2023-08-30T10:03:17;15.50;73.80
78876;DHT22;68253;52.506;5.486;2023-08-30T10:05:44;15.50;73.80
78876;DHT22;68253;52.506;5.486;2023-08-30T10:08:13;15.50;73.90
78876;DHT22;68253;52.506;5.486;2023-08-30T10:10:40;15.50;74.00
78876;DHT22;68253;52.506;5.486;2023-08-30T10:13:06;15.40;74.00
78876;DHT22;68253;52.506;5.486;2023-08-30T10:15:34;15.40;74.10
78876;DHT22;68253;52.506;5.486;2023-08-30T10:18:02;15.40;74.20
78876;DHT22;68253;52.506;5.486;2023-08-30T10:20:29;15.40;74.30
78876;DHT22;68253;52.506;5.486;2023-08-30T10:22:57;15.40;74.40
78876;DHT22;68253;52.506;5.486;2023-08-30T10:25:29;15.40;74.40
78876;DHT22;68253;52.506;5.486;2023-08-30T10:27:58;15.40;74.50
78876;DHT22;68253;52.506;5.486;2023-08-30T10:30:25;15.50;74.70
78876;DHT22;68253;52.506;5.486;2023-08-30T10:32:51;15.60;74.80
78876;DHT22;68253;52.506;5.486;2023-08-30T10:35:18;15.80;74.70
78876;DHT22;68253;52.506;5.486;2023-08-30T10:37:59;15.80;74.70
78876;DHT22;68253;52.506;5.486;2023-08-30T10:40:25;16.00;74.70
78876;DHT22;68253;52.506;5.486;2023-08-30T10:43:04;16.10;74.80
78876;DHT22;68253;52.506;5.486;2023-08-30T10:45:31;16.20;74.70
78876;DHT22;68253;52.506;5.486;2023-08-30T10:47:58;16.40;74.30
78876;DHT22;68253;52.506;5.486;2023-08-30T10:50:32;16.50;74.00
78876;DHT22;68253;52.506;5.486;2023-08-30T10:52:59;16.60;74.00
78876;DHT22;68253;52.506;5.486;2023-08-30T10:55:25;16.60;73.70
78876;DHT22;68253;52.506;5.486;2023-08-30T10:58:03;16.60;73.60
78876;DHT22;68253;52.506;5.486;2023-08-30T11:00:30;16.60;73.60
78876;DHT22;68253;52.506;5.486;2023-08-30T11:02:57;16.70;73.70
78876;DHT22;68253;52.506;5.486;2023-08-30T11:05:25;16.90;73.90
78876;DHT22;68253;52.506;5.486;2023-08-30T11:07:52;17.10;73.20
78876;DHT22;68253;52.506;5.486;2023-08-30T11:10:19;17.50;74.00
78876;DHT22;68253;52.506;5.486;2023-08-30T11:12:45;18.30;73.00
78876;DHT22;68253;52.506;5.486;2023-08-30T11:15:13;19.00;71.20
78876;DHT22;68253;52.506;5.486;2023-08-30T11:17:41;19.40;68.70
78876;DHT22;68253;52.506;5.486;2023-08-30T11:22:43;20.00;67.20
78876;DHT22;68253;52.506;5.486;2023-08-30T11:25:12;20.20;65.90
78876;DHT22;68253;52.506;5.486;2023-08-30T11:27:39;20.40;66.00
78876;DHT22;68253;52.506;5.486;2023-08-30T11:30:06;20.70;65.60
78876;DHT22;68253;52.506;5.486;2023-08-30T11:32:37;20.80;64.80
78876;DHT22;68253;52.506;5.486;2023-08-30T11:35:05;20.90;64.30
78876;DHT22;68253;52.506;5.486;2023-08-30T11:37:32;21.00;65.20
78876;DHT22;68253;52.506;5.486;2023-08-30T11:40:00;21.00;64.40
78876;DHT22;68253;52.506;5.486;2023-08-30T11:42:26;21.00;64.90
78876;DHT22;68253;52.506;5.486;2023-08-30T11:44:53;21.00;63.50
78876;DHT22;68253;52.506;5.486;2023-08-30T11:47:23;20.90;63.20
78876;DHT22;68253;52.506;5.486;2023-08-30T11:49:49;20.80;63.20
78876;DHT22;68253;52.506;5.486;2023-08-30T11:52:17;20.80;64.30
78876;DHT22;68253;52.506;5.486;2023-08-30T11:54:44;21.10;63.30
78876;DHT22;68253;52.506;5.486;2023-08-30T11:57:10;21.20;61.60
78876;DHT22;68253;52.506;5.486;2023-08-30T11:59:37;21.30;62.80
78876;DHT22;68253;52.506;5.486;2023-08-30T13:02:03;23.00;55.60
78876;DHT22;68253;52.506;5.486;2023-08-30T13:04:29;23.10;56.20
78876;DHT22;68253;52.506;5.486;2023-08-30T13:06:55;23.40;56.30
78876;DHT22;68253;52.506;5.486;2023-08-30T13:09:21;23.50;54.70
78876;DHT22;68253;52.506;5.486;2023-08-30T13:11:47;23.60;55.40
78876;DHT22;68253;52.506;5.486;2023-08-30T13:14:13;23.80;54.60
78876;DHT22;68253;52.506;5.486;2023-08-30T13:16:39;23.90;55.10
78876;DHT22;68253;52.506;5.486;2023-08-30T13:19:06;24.00;54.40
78876;DHT22;68253;52.506;5.486;2023-08-30T13:21:32;24.00;53.90
78876;DHT22;68253;52.506;5.486;2023-08-30T13:23:58;24.00;53.70
78876;DHT22;68253;52.506;5.486;2023-08-30T13:26:24;24.10;53.30
78876;DHT22;68253;52.506;5.486;2023-08-30T13:28:50;24.20;54.30
78876;DHT22;68253;52.506;5.486;2023-08-30T13:31:16;24.40;53.50
78876;DHT22;68253;52.506;5.486;2023-08-30T13:33:42;24.40;52.50
78876;DHT22;68253;52.506;5.486;2023-08-30T13:36:09;24.40;53.00
78876;DHT22;68253;52.506;5.486;2023-08-30T13:38:35;24.40;53.00
78876;DHT22;68253;52.506;5.486;2023-08-30T13:41:01;24.50;52.40
78876;DHT22;68253;52.506;5.486;2023-08-30T13:43:27;24.50;53.00
78876;DHT22;68253;52.506;5.486;2023-08-30T13:45:58;24.50;52.80
78876;DHT22;68253;52.506;5.486;2023-08-30T13:48:24;24.40;52.70
78876;DHT22;68253;52.506;5.486;2023-08-30T13:50:51;24.10;52.60
78876;DHT22;68253;52.506;5.486;2023-08-30T13:53:17;23.80;53.00
78876;DHT22;68253;52.506;5.486;2023-08-30T13:55:47;23.40;52.80
78876;DHT22;68253;52.506;5.486;2023-08-30T13:58:16;22.90;54.30
78876;DHT22;68253;52.506;5.486;2023-08-30T14:00:44;22.50;54.20
78876;DHT22;68253;52.506;5.486;2023-08-30T14:03:10;22.20;54.60
78876;DHT22;68253;52.506;5.486;2023-08-30T14:05:36;21.90;54.40
78876;DHT22;68253;52.506;5.486;2023-08-30T14:08:06;21.60;55.80
78876;DHT22;68253;52.506;5.486;2023-08-30T14:10:33;21.10;57.10
78876;DHT22;68253;52.506;5.486;2023-08-30T14:12:59;20.70;58.60
78876;DHT22;68253;52.506;5.486;2023-08-30T14:15:25;20.30;60.50
78876;DHT22;68253;52.506;5.486;2023-08-30T14:17:51;20.00;61.40
78876;DHT22;68253;52.506;5.486;2023-08-30T14:20:18;19.70;61.90
78876;DHT22;68253;52.506;5.486;2023-08-30T14:22:44;19.40;62.40
78876;DHT22;68253;52.506;5.486;2023-08-30T14:25:10;19.10;63.20
78876;DHT22;68253;52.506;5.486;2023-08-30T14:27:36;18.90;63.20
78876;DHT22;68253;52.506;5.486;2023-08-30T14:30:02;18.70;63.40
78876;DHT22;68253;52.506;5.486;2023-08-30T14:32:29;18.60;63.60
78876;DHT22;68253;52.506;5.486;2023-08-30T14:34:55;18.50;63.50
78876;DHT22;68253;52.506;5.486;2023-08-30T14:37:21;18.60;63.50
78876;DHT22;68253;52.506;5.486;2023-08-30T14:39:47;18.60;63.60
78876;DHT22;68253;52.506;5.486;2023-08-30T14:42:13;18.60;62.70
78876;DHT22;68253;52.506;5.486;2023-08-30T14:44:39;18.70;62.90
78876;DHT22;68253;52.506;5.486;2023-08-30T14:47:05;18.70;62.00
78876;DHT22;68253;52.506;5.486;2023-08-30T14:49:31;18.70;62.20
78876;DHT22;68253;52.506;5.486;2023-08-30T14:51:58;18.80;61.40
78876;DHT22;68253;52.506;5.486;2023-08-30T14:54:24;18.80;60.90
78876;DHT22;68253;52.506;5.486;2023-08-30T14:56:50;18.80;60.20
78876;DHT22;68253;52.506;5.486;2023-08-30T14:59:16;18.80;60.50
78876;DHT22;68253;52.506;5.486;2023-08-30T15:01:42;18.80;60.00
78876;DHT22;68253;52.506;5.486;2023-08-30T15:04:08;18.90;60.50
78876;DHT22;68253;52.506;5.486;2023-08-30T15:06:34;19.20;60.50
78876;DHT22;68253;52.506;5.486;2023-08-30T15:09:03;19.50;60.20
78876;DHT22;68253;52.506;5.486;2023-08-30T15:11:29;19.60;59.80
78876;DHT22;68253;52.506;5.486;2023-08-30T15:13:55;19.60;60.50
78876;DHT22;68253;52.506;5.486;2023-08-30T15:16:22;19.70;60.50
78876;DHT22;68253;52.506;5.486;2023-08-30T15:18:48;20.00;60.10
78876;DHT22;68253;52.506;5.486;2023-08-30T15:21:14;20.00;60.40
78876;DHT22;68253;52.506;5.486;2023-08-30T15:23:40;20.20;59.80
78876;DHT22;68253;52.506;5.486;2023-08-30T15:26:06;20.20;59.70
78876;DHT22;68253;52.506;5.486;2023-08-30T15:28:33;20.10;59.10
78876;DHT22;68253;52.506;5.486;2023-08-30T15:30:59;20.00;58.50
78876;DHT22;68253;52.506;5.486;2023-08-30T15:33:25;20.00;59.00
78876;DHT22;68253;52.506;5.486;2023-08-30T15:35:52;19.90;59.10
78876;DHT22;68253;52.506;5.486;2023-08-30T15:38:18;19.90;58.70
78876;DHT22;68253;52.506;5.486;2023-08-30T15:40:44;20.00;58.50
78876;DHT22;68253;52.506;5.486;2023-08-30T15:43:12;20.00;58.90
78876;DHT22;68253;52.506;5.486;2023-08-30T15:45:39;20.00;58.60
78876;DHT22;68253;52.506;5.486;2023-08-30T15:48:05;20.00;59.10
78876;DHT22;68253;52.506;5.486;2023-08-30T15:50:31;20.00;59.10
78876;DHT22;68253;52.506;5.486;2023-08-30T15:52:58;19.80;59.10
78876;DHT22;68253;52.506;5.486;2023-08-30T15:55:24;19.70;59.60
78876;DHT22;68253;52.506;5.486;2023-08-30T15:57:54;19.50;59.90
78876;DHT22;68253;52.506;5.486;2023-08-30T16:00:21;19.50;60.00
78876;DHT22;68253;52.506;5.486;2023-08-30T16:02:49;19.50;59.50
78876;DHT22;68253;52.506;5.486;2023-08-30T16:05:18;19.60;59.10
78876;DHT22;68253;52.506;5.486;2023-08-30T16:07:44;19.50;58.30
78876;DHT22;68253;52.506;5.486;2023-08-30T16:10:10;19.50;57.90
78876;DHT22;68253;52.506;5.486;2023-08-30T16:12:36;19.40;57.40
78876;DHT22;68253;52.506;5.486;2023-08-30T16:15:03;19.40;57.30
78876;DHT22;68253;52.506;5.486;2023-08-30T16:17:29;19.30;57.50
78876;DHT22;68253;52.506;5.486;2023-08-30T16:19:55;19.20;57.40
78876;DHT22;68253;52.506;5.486;2023-08-30T16:22:22;19.10;57.40
78876;DHT22;68253;52.506;5.486;2023-08-30T16:24:49;19.00;57.80
78876;DHT22;68253;52.506;5.486;2023-08-30T16:27:15;18.90;58.20
78876;DHT22;68253;52.506;5.486;2023-08-30T16:29:41;18.80;58.50
78876;DHT22;68253;52.506;5.486;2023-08-30T16:32:07;18.80;58.70
78876;DHT22;68253;52.506;5.486;2023-08-30T16:34:33;18.70;58.90
78876;DHT22;68253;52.506;5.486;2023-08-30T16:36:59;18.60;59.00
78876;DHT22;68253;52.506;5.486;2023-08-30T16:39:25;18.60;59.20
78876;DHT22;68253;52.506;5.486;2023-08-30T16:41:51;18.50;59.20
78876;DHT22;68253;52.506;5.486;2023-08-30T16:44:18;18.50;59.50